createdAt,value
2016-03-23T00:00:51.016Z,63.89
2016-03-23T00:01:51.221Z,63.99
2016-03-23T00:02:50.959Z,64.18
2016-03-23T00:03:51.008Z,64.08
2016-03-23T00:04:50.901Z,63.99
2016-03-23T00:05:51.059Z,64.18
2016-03-23T00:06:50.970Z,63.99
2016-03-23T00:07:51.159Z,63.99
2016-03-23T00:08:50.817Z,64.18
2016-03-23T00:09:50.820Z,63.8
2016-03-23T00:10:51.714Z,64.18
2016-03-23T00:11:50.764Z,63.99
2016-03-23T00:12:50.766Z,64.56
2016-03-23T00:13:51.081Z,64.28
2016-03-23T00:14:50.694Z,64.18
2016-03-23T00:15:50.805Z,64.28
2016-03-23T00:16:50.762Z,64.08
2016-03-23T00:17:50.592Z,64.18
2016-03-23T00:18:50.580Z,64.37
2016-03-23T00:19:50.535Z,64.37
2016-03-23T00:20:50.757Z,64.28
2016-03-23T00:21:51.010Z,64.08
2016-03-23T00:22:50.480Z,64.47
2016-03-23T00:23:50.438Z,64.08
2016-03-23T00:24:50.690Z,64.56
2016-03-23T00:25:50.521Z,64.56
2016-03-23T00:26:50.351Z,64.65
2016-03-23T00:27:50.573Z,64.47
2016-03-23T00:28:50.326Z,64.84
2016-03-23T00:29:50.328Z,65.03
2016-03-23T00:30:50.319Z,65.03
2016-03-23T00:31:50.274Z,65.03
2016-03-23T00:32:50.277Z,64.84
2016-03-23T00:34:03.982Z,64.84
2016-03-23T00:34:50.641Z,65.13
2016-03-23T00:35:50.253Z,64.81
2016-03-23T00:36:50.115Z,65.13
2016-03-23T00:37:50.071Z,64.84
2016-03-23T00:38:50.137Z,64.81
2016-03-23T00:39:50.029Z,64.75
2016-03-23T00:40:50.017Z,64.65
2016-03-23T00:41:50.332Z,65
2016-03-23T00:42:50.053Z,65.03
2016-03-23T00:43:50.040Z,64.75
2016-03-23T00:44:49.902Z,64.84
2016-03-23T00:45:49.889Z,64.62
2016-03-23T00:46:49.845Z,64.56
2016-03-23T00:47:49.863Z,64.53
2016-03-23T00:48:49.836Z,64.56
2016-03-23T00:49:49.791Z,64.72
2016-03-23T00:50:49.762Z,64.53
2016-03-23T00:51:49.734Z,64.84
2016-03-23T00:52:50.002Z,64.72
2016-03-23T00:53:50.317Z,64.84
2016-03-23T00:54:50.163Z,64.84
2016-03-23T00:55:49.651Z,65
2016-03-23T00:56:49.622Z,64.84
2016-03-23T00:57:49.562Z,65.13
2016-03-23T00:58:49.893Z,65.1
2016-03-23T00:59:49.583Z,64.81
2016-03-23T01:00:49.524Z,65.13
2016-03-23T01:01:49.574Z,64.84
2016-03-23T01:02:49.483Z,65.03
2016-03-23T01:03:50.047Z,64.53
2016-03-23T01:04:49.471Z,64.81
2016-03-23T01:05:49.490Z,64.65
2016-03-23T01:06:49.368Z,64.62
2016-03-23T01:07:49.323Z,64.56
2016-03-23T01:08:49.529Z,64.62
2016-03-23T01:09:49.281Z,64.65
2016-03-23T01:10:49.254Z,65
2016-03-23T01:11:49.225Z,64.94
2016-03-23T01:12:49.196Z,64.72
2016-03-23T01:13:49.340Z,64.53
2016-03-23T01:14:49.201Z,64.65
2016-03-23T01:15:49.111Z,64.56
2016-03-23T01:16:49.192Z,64.65
2016-03-23T01:17:49.351Z,64.56
2016-03-23T01:18:49.119Z,64.43
2016-03-23T01:19:49.121Z,64.37
2016-03-23T01:20:49.078Z,65
2016-03-23T01:21:49.205Z,64.72
2016-03-23T01:22:49.161Z,65
2016-03-23T01:23:48.976Z,64.81
2016-03-23T01:24:48.119Z,64.94
2016-03-23T01:25:49.044Z,65
2016-03-23T01:26:49.750Z,64.81
2016-03-23T01:27:48.831Z,65
2016-03-23T01:28:49.146Z,64.62
2016-03-23T01:29:48.788Z,64.81
2016-03-23T01:30:48.839Z,64.84
2016-03-23T01:31:48.732Z,65
2016-03-23T01:32:48.735Z,65.03
2016-03-23T01:33:48.722Z,64.81
2016-03-23T01:34:48.756Z,65.13
2016-03-23T01:35:48.633Z,65.19
2016-03-23T01:36:49.057Z,64.72
2016-03-23T01:37:48.592Z,65.1
2016-03-23T01:38:48.610Z,64.75
2016-03-23T01:39:48.566Z,64.62
2016-03-23T01:40:48.521Z,64.62
2016-03-23T01:41:48.571Z,64.72
2016-03-23T01:42:48.512Z,65.03
2016-03-23T01:43:49.029Z,64.72
2016-03-23T01:44:48.470Z,64.62
2016-03-23T01:45:48.379Z,64.75
2016-03-23T01:46:48.772Z,64.9
2016-03-23T01:47:48.353Z,65
2016-03-23T01:48:48.356Z,64.9
2016-03-23T01:49:48.280Z,64.72
2016-03-23T01:50:48.236Z,64.75
2016-03-23T01:51:48.270Z,65.03
2016-03-23T01:52:48.226Z,64.72
2016-03-23T01:53:48.166Z,64.84
2016-03-23T01:54:48.231Z,64.9
2016-03-23T01:55:48.141Z,65.1
2016-03-23T01:56:48.143Z,65
2016-03-23T01:57:48.146Z,64.81
2016-03-23T01:58:48.132Z,64.81
2016-03-23T01:59:48.058Z,64.9
2016-03-23T02:00:48.091Z,64.81
2016-03-23T02:01:47.952Z,64.65
2016-03-23T02:02:47.956Z,64.81
2016-03-23T02:03:47.912Z,65.03
2016-03-23T02:04:47.899Z,64.81
2016-03-23T02:05:47.871Z,64.9
2016-03-23T02:06:47.905Z,64.72
2016-03-23T02:07:47.844Z,64.81
2016-03-23T02:08:47.823Z,65
2016-03-23T02:09:47.807Z,65.77
2016-03-23T02:10:47.943Z,65.86
2016-03-23T02:11:48.672Z,65.58
2016-03-23T02:12:47.895Z,65.67
2016-03-23T02:13:47.678Z,65.67
2016-03-23T02:14:47.634Z,65.67
2016-03-23T02:15:47.683Z,65.48
2016-03-23T02:16:47.717Z,65.67
2016-03-23T02:17:47.611Z,65.67
2016-03-23T02:18:47.816Z,65.67
2016-03-23T02:19:47.600Z,65.67
2016-03-23T02:20:50.500Z,65.67
2016-03-23T02:21:47.518Z,65.48
2016-03-23T02:22:47.473Z,65.48
2016-03-23T02:23:47.554Z,65.38
2016-03-23T02:24:47.400Z,65.77
2016-03-23T02:25:47.670Z,65.48
2016-03-23T02:26:47.359Z,65.38
2016-03-23T02:27:47.346Z,65.48
2016-03-23T02:28:47.302Z,66.14
2016-03-23T02:29:47.289Z,65.86
2016-03-23T02:30:47.229Z,65.77
2016-03-23T02:31:47.233Z,65.67
2016-03-23T02:32:47.188Z,65.77
2016-03-23T02:33:47.160Z,65.29
2016-03-23T02:34:47.146Z,65.58
2016-03-23T02:36:47.089Z,65.38
2016-03-23T02:37:47.060Z,65.58
2016-03-23T02:38:47.048Z,65.48
2016-03-23T02:39:47.003Z,65.67
2016-03-23T02:40:46.991Z,65.67
2016-03-23T02:41:46.962Z,65.48
2016-03-23T02:42:47.105Z,65.48
2016-03-23T02:43:46.937Z,65.48
2016-03-23T02:44:47.517Z,65.67
2016-03-23T02:45:47.004Z,65.38
2016-03-23T02:46:46.834Z,65.86
2016-03-23T02:47:46.838Z,65.86
2016-03-23T02:48:46.903Z,65.77
2016-03-23T02:49:46.812Z,65.77
2016-03-23T02:50:46.783Z,65.67
2016-03-23T02:51:46.770Z,65.67
2016-03-23T02:52:46.789Z,65.29
2016-03-23T02:53:46.697Z,65.29
2016-03-23T02:54:46.685Z,65.58
2016-03-23T02:55:46.656Z,65.48
2016-03-23T02:56:46.472Z,65.29
2016-03-23T02:57:46.646Z,65.86
2016-03-23T02:58:46.695Z,65.67
2016-03-23T02:59:46.542Z,65.29
2016-03-23T03:00:46.528Z,65.38
2016-03-23T03:01:46.500Z,65.58
2016-03-23T03:02:46.706Z,65.48
2016-03-23T03:03:46.474Z,65.48
2016-03-23T03:04:46.430Z,65.48
2016-03-23T03:05:46.417Z,65.67
2016-03-23T03:06:46.420Z,65.48
2016-03-23T03:07:46.407Z,65.38
2016-03-23T03:08:46.316Z,65.48
2016-03-23T03:09:46.335Z,65.58
2016-03-23T03:10:46.291Z,65.67
2016-03-23T03:11:46.293Z,65.48
2016-03-23T03:12:46.232Z,65.48
2016-03-23T03:13:46.220Z,65.58
2016-03-23T03:14:46.270Z,65.48
2016-03-23T03:15:46.162Z,65.77
2016-03-23T03:16:46.104Z,66.05
2016-03-23T03:17:46.137Z,66.14
2016-03-23T03:18:46.155Z,65.95
2016-03-23T03:19:46.111Z,66.05
2016-03-23T03:20:46.036Z,65.95
2016-03-23T03:21:46.148Z,66.43
2016-03-23T03:22:46.072Z,66.24
2016-03-23T03:23:46.028Z,65.95
2016-03-23T03:24:46.297Z,66.14
2016-03-23T03:25:45.908Z,66.14
2016-03-23T03:26:45.895Z,66.14
2016-03-23T03:27:45.883Z,66.14
2016-03-23T03:28:45.886Z,66.72
2016-03-23T03:29:45.794Z,66.43
2016-03-23T03:30:45.781Z,66.33
2016-03-23T03:31:45.784Z,66.43
2016-03-23T03:32:45.835Z,66.53
2016-03-23T03:33:45.712Z,66.05
2016-03-23T03:34:45.495Z,65.95
2016-03-23T03:35:45.733Z,66.53
2016-03-23T03:36:45.658Z,66.33
2016-03-23T03:37:45.598Z,66.81
2016-03-23T03:38:45.569Z,67
2016-03-23T03:39:45.603Z,66.81
2016-03-23T03:40:45.559Z,66.72
2016-03-23T03:41:45.499Z,66.62
2016-03-23T03:42:45.487Z,67
2016-03-23T03:43:45.442Z,66.72
2016-03-23T03:44:45.414Z,66.53
2016-03-23T03:45:45.416Z,66.62
2016-03-23T03:46:45.357Z,67.19
2016-03-23T03:47:45.328Z,67.1
2016-03-23T03:48:45.330Z,67
2016-03-23T03:49:45.443Z,66.72
2016-03-23T03:50:45.274Z,67.76
2016-03-23T03:51:45.260Z,67.67
2016-03-23T03:52:45.201Z,67.67
2016-03-23T03:53:45.219Z,67.63
2016-03-23T03:54:45.113Z,67.07
2016-03-23T03:55:45.084Z,67.35
2016-03-23T03:56:45.087Z,67.63
2016-03-23T03:57:45.043Z,67.73
2016-03-23T03:58:45.014Z,67.25
2016-03-23T03:59:44.970Z,67.35
2016-03-23T04:00:44.973Z,66.87
2016-03-23T04:01:44.943Z,67.16
2016-03-23T04:02:45.056Z,67.25
2016-03-23T04:03:44.918Z,67.25
2016-03-23T04:04:44.859Z,67.63
2016-03-23T04:05:44.845Z,67.54
2016-03-23T04:06:44.832Z,67.63
2016-03-23T04:07:44.772Z,67.25
2016-03-23T04:08:44.853Z,66.87
2016-03-23T04:09:44.747Z,67
2016-03-23T04:10:44.796Z,67.35
2016-03-23T04:11:44.690Z,66.97
2016-03-23T04:12:44.755Z,66.68
2016-03-23T04:13:44.617Z,66.68
2016-03-23T04:14:44.713Z,67.29
2016-03-23T04:15:44.591Z,66.97
2016-03-23T04:16:44.578Z,66.97
2016-03-23T04:17:44.580Z,66.78
2016-03-23T04:18:44.583Z,66.78
2016-03-23T04:19:44.554Z,66.78
2016-03-23T04:20:44.510Z,67.29
2016-03-23T04:21:44.466Z,67.44
2016-03-23T04:22:44.406Z,67.44
2016-03-23T04:23:44.487Z,67.47
2016-03-23T04:24:44.365Z,67.54
2016-03-23T04:25:44.367Z,68.01
2016-03-23T04:26:44.370Z,67.73
2016-03-23T04:27:44.279Z,67.73
2016-03-23T04:28:44.375Z,67.92
2016-03-23T04:29:44.284Z,67.73
2016-03-23T04:30:44.193Z,67.25
2016-03-23T04:31:44.181Z,67.73
2016-03-23T04:32:44.136Z,67.63
2016-03-23T04:33:44.123Z,67.73
2016-03-23T04:34:44.111Z,67.82
2016-03-23T04:35:44.097Z,67.35
2016-03-23T04:36:44.116Z,67.73
2016-03-23T04:37:44.025Z,67.82
2016-03-23T04:38:44.028Z,67.73
2016-03-23T04:39:43.952Z,67.73
2016-03-23T04:40:44.923Z,67.73
2016-03-23T04:41:43.926Z,67.73
2016-03-23T04:42:43.914Z,67.73
2016-03-23T04:43:43.885Z,67.73
2016-03-23T04:44:43.856Z,67.92
2016-03-23T04:45:44.125Z,67.54
2016-03-23T04:46:43.861Z,67.44
2016-03-23T04:47:43.786Z,67.44
2016-03-23T04:48:43.852Z,67.63
2016-03-23T04:49:43.714Z,67.44
2016-03-23T04:50:43.716Z,67.47
2016-03-23T04:51:43.687Z,67.54
2016-03-23T04:52:43.738Z,67.63
2016-03-23T04:53:43.646Z,68.01
2016-03-23T04:54:43.602Z,67.76
2016-03-23T04:55:43.589Z,67.54
2016-03-23T04:56:43.670Z,67.44
2016-03-23T04:57:43.501Z,67.44
2016-03-23T04:58:43.503Z,67.44
2016-03-23T04:59:43.554Z,67.47
2016-03-23T05:00:43.509Z,67.35
2016-03-23T05:01:43.480Z,67.44
2016-03-23T05:02:43.420Z,67.95
2016-03-23T05:03:43.360Z,67.54
2016-03-23T05:04:43.456Z,67.54
2016-03-23T05:05:43.320Z,67.54
2016-03-23T05:06:43.322Z,67.44
2016-03-23T05:07:43.278Z,67.73
2016-03-23T05:08:43.342Z,67.35
2016-03-23T05:09:43.220Z,67.44
2016-03-23T05:10:43.239Z,67.44
2016-03-23T05:11:43.163Z,67.44
2016-03-23T05:12:43.134Z,67.35
2016-03-23T05:13:43.105Z,67.44
2016-03-23T05:14:43.094Z,67.47
2016-03-23T05:15:43.061Z,67.44
2016-03-23T05:16:43.023Z,67.73
2016-03-23T05:17:42.984Z,67.92
2016-03-23T05:18:42.991Z,67.76
2016-03-23T05:19:42.891Z,67.73
2016-03-23T05:20:42.932Z,67.73
2016-03-23T05:21:42.977Z,67.54
2016-03-23T05:22:42.836Z,67.92
2016-03-23T05:23:42.804Z,67.82
2016-03-23T05:24:42.757Z,67.73
2016-03-23T05:25:42.741Z,67.54
2016-03-23T05:26:42.945Z,67.63
2016-03-23T05:27:42.743Z,67.73
2016-03-23T05:28:42.682Z,67.54
2016-03-23T05:29:42.683Z,67.73
2016-03-23T05:30:42.605Z,67.82
2016-03-23T05:31:42.593Z,67.73
2016-03-23T05:32:42.549Z,67.44
2016-03-23T05:34:42.522Z,67.35
2016-03-23T05:35:42.493Z,67.54
2016-03-23T05:36:42.449Z,67.63
2016-03-23T05:37:42.452Z,67.44
2016-03-23T05:38:42.266Z,67.19
2016-03-23T05:39:42.472Z,67.63
2016-03-23T05:40:42.366Z,67.19
2016-03-23T05:41:42.368Z,67.44
2016-03-23T05:42:42.324Z,67.76
2016-03-23T05:43:42.342Z,67.63
2016-03-23T05:44:42.298Z,67.63
2016-03-23T05:45:42.254Z,67.63
2016-03-23T05:46:42.210Z,67.76
2016-03-23T05:47:42.229Z,67.63
2016-03-23T05:48:42.199Z,67.44
2016-03-23T05:49:42.124Z,67.44
2016-03-23T05:50:42.204Z,67.44
2016-03-23T05:51:42.067Z,67.54
2016-03-23T05:52:42.054Z,67.73
2016-03-23T05:53:42.041Z,67.73
2016-03-23T05:54:42.012Z,67.73
2016-03-23T05:55:41.985Z,67.54
2016-03-23T05:56:42.456Z,67.44
2016-03-23T05:57:41.943Z,67.25
2016-03-23T05:58:41.899Z,66.87
2016-03-23T05:59:42.073Z,66.87
2016-03-23T06:00:41.857Z,67.35
2016-03-23T06:01:41.906Z,66.97
2016-03-23T06:02:41.831Z,67.25
2016-03-23T06:03:41.756Z,67.38
2016-03-23T06:04:41.742Z,66.78
2016-03-23T06:05:41.714Z,66.97
2016-03-23T06:06:55.491Z,67
2016-03-23T06:07:41.692Z,66.91
2016-03-23T06:08:41.632Z,66.72
2016-03-23T06:09:41.682Z,67.1
2016-03-23T06:10:41.591Z,67.19
2016-03-23T06:11:41.562Z,66.62
2016-03-23T06:12:41.612Z,66.49
2016-03-23T06:13:41.521Z,66.72
2016-03-23T06:14:41.508Z,67
2016-03-23T06:15:41.354Z,66.81
2016-03-23T06:16:41.450Z,66.81
2016-03-23T06:17:41.437Z,66.33
2016-03-23T06:18:41.409Z,66.53
2016-03-23T06:19:41.428Z,66.53
2016-03-23T06:20:41.368Z,66.62
2016-03-23T06:21:41.308Z,66.33
2016-03-23T06:22:41.280Z,66.62
2016-03-23T06:23:41.250Z,66.33
2016-03-23T06:24:41.269Z,66.33
2016-03-23T06:25:41.209Z,66.14
2016-03-23T06:26:41.259Z,66.33
2016-03-23T06:27:41.152Z,66.24
2016-03-23T06:28:41.139Z,66.33
2016-03-23T06:29:41.298Z,66.43
2016-03-23T06:30:41.207Z,66.24
2016-03-23T06:31:41.397Z,65.95
2016-03-23T06:32:41.041Z,65.95
2016-03-23T06:33:41.013Z,66.05
2016-03-23T06:34:41.077Z,66.05
2016-03-23T06:35:40.940Z,65.95
2016-03-23T06:36:40.926Z,65.95
2016-03-23T06:37:40.913Z,65.95
2016-03-23T06:38:40.869Z,65.95
2016-03-23T06:39:40.856Z,65.95
2016-03-23T06:40:40.828Z,66.14
2016-03-23T06:41:40.814Z,66.14
2016-03-23T06:42:40.786Z,66.24
2016-03-23T06:43:39.945Z,66.14
2016-03-23T06:44:40.745Z,66.14
2016-03-23T06:45:40.701Z,65.95
2016-03-23T06:46:40.687Z,66.05
2016-03-23T06:47:40.659Z,66.14
2016-03-23T06:48:40.692Z,65.95
2016-03-23T06:49:40.617Z,66.24
2016-03-23T06:50:40.589Z,65.86
2016-03-23T06:51:40.669Z,66.24
2016-03-23T06:52:40.516Z,66.05
2016-03-23T06:53:40.503Z,66.05
2016-03-23T06:54:40.491Z,66.05
2016-03-23T06:55:40.556Z,66.43
2016-03-23T06:56:40.528Z,66.24
2016-03-23T06:57:40.405Z,66.33
2016-03-23T06:58:40.408Z,66.05
2016-03-23T06:59:40.458Z,65.67
2016-03-23T07:00:40.335Z,65.77
2016-03-23T07:01:40.494Z,65.77
2016-03-23T07:02:40.309Z,66.05
2016-03-23T07:03:40.483Z,65.95
2016-03-23T07:04:40.252Z,66.05
2016-03-23T07:05:40.223Z,65.86
2016-03-23T07:06:40.179Z,66.14
2016-03-23T07:07:40.181Z,66.05
2016-03-23T07:08:40.200Z,65.48
2016-03-23T07:09:40.109Z,65.7
2016-03-23T07:10:40.065Z,65.67
2016-03-23T07:11:40.068Z,65.67
2016-03-23T07:12:40.039Z,65.29
2016-03-23T07:13:39.995Z,65.42
2016-03-23T07:14:40.200Z,65.58
2016-03-23T07:15:39.968Z,65.86
2016-03-23T07:16:39.971Z,65.67
2016-03-23T07:17:39.927Z,65.89
2016-03-23T07:18:39.867Z,65.99
2016-03-23T07:19:39.854Z,65.89
2016-03-23T07:20:39.372Z,65.86
2016-03-23T07:21:40.141Z,65.7
2016-03-23T07:22:39.784Z,65.89
2016-03-23T07:23:39.865Z,65.89
2016-03-23T07:24:39.931Z,65.8
2016-03-23T07:25:38.917Z,65.8
2016-03-23T07:26:40.061Z,65.8
2016-03-23T07:28:39.691Z,65.8
2016-03-23T07:29:39.631Z,65.42
2016-03-23T07:30:39.588Z,65.23
2016-03-23T07:31:39.605Z,65.13
2016-03-23T07:32:39.608Z,64.84
2016-03-23T07:33:39.502Z,65.13
2016-03-23T07:34:39.769Z,64.84
2016-03-23T07:35:39.444Z,64.84
2016-03-23T07:36:39.432Z,64.28
2016-03-23T07:37:39.402Z,64.56
2016-03-23T07:38:39.359Z,63.99
2016-03-23T07:39:39.329Z,63.89
2016-03-23T07:40:39.332Z,63.6
2016-03-23T07:41:39.398Z,64.47
2016-03-23T07:42:39.275Z,64.47
2016-03-23T07:43:39.248Z,63.7
2016-03-23T07:44:38.453Z,64.5
2016-03-23T07:45:39.190Z,63.89
2016-03-23T07:46:38.349Z,64.47
2016-03-23T07:47:39.164Z,63.92
2016-03-23T07:48:39.151Z,64.02
2016-03-23T07:49:39.123Z,63.99
2016-03-23T07:50:39.125Z,64.21
2016-03-23T07:51:39.081Z,63.99
2016-03-23T07:52:39.036Z,64.4
2016-03-23T07:53:39.008Z,64.31
2016-03-23T07:54:39.011Z,63.54
2016-03-23T07:55:39.279Z,63.35
2016-03-23T07:56:39.329Z,63.54
2016-03-23T07:57:38.160Z,63.54
2016-03-23T07:58:38.975Z,63.92
2016-03-23T07:59:38.852Z,63.64
2016-03-23T08:00:38.839Z,63.54
2016-03-23T08:01:39.077Z,63.54
2016-03-23T08:02:38.845Z,63.45
2016-03-23T08:03:38.942Z,64.21
2016-03-23T08:04:38.788Z,64.12
2016-03-23T08:05:38.728Z,64.12
2016-03-23T08:06:38.574Z,63.92
2016-03-23T08:07:38.749Z,64.12
2016-03-23T08:08:38.643Z,64.12
2016-03-23T08:09:38.598Z,63.83
2016-03-23T08:10:38.570Z,64.12
2016-03-23T08:11:38.572Z,63.99
2016-03-23T08:12:38.731Z,63.89
2016-03-23T08:13:38.499Z,63.8
2016-03-23T08:14:38.502Z,64.47
2016-03-23T08:15:38.661Z,64.37
2016-03-23T08:16:38.664Z,63.8
2016-03-23T08:17:38.464Z,64.18
2016-03-23T08:18:38.466Z,64.18
2016-03-23T08:19:38.376Z,63.51
2016-03-23T08:20:38.331Z,63.17
2016-03-23T08:21:38.521Z,63.54
2016-03-23T08:22:38.289Z,63.26
2016-03-23T08:23:38.276Z,63.35
2016-03-23T08:24:38.248Z,62.97
2016-03-23T08:25:38.250Z,63.45
2016-03-23T08:26:38.175Z,62.68
2016-03-23T08:27:38.334Z,62.78
2016-03-23T08:28:38.289Z,62.97
2016-03-23T08:29:38.403Z,63.17
2016-03-23T08:30:38.155Z,62.88
2016-03-23T08:31:38.080Z,62.68
2016-03-23T08:32:38.035Z,62.49
2016-03-23T08:33:38.100Z,62.3
2016-03-23T08:34:38.025Z,62.3
2016-03-23T08:35:38.058Z,62.4
2016-03-23T08:36:38.015Z,62.12
2016-03-23T08:37:38.282Z,62.68
2016-03-23T08:38:51.677Z,62.3
2016-03-23T08:39:37.851Z,62.02
2016-03-23T08:40:37.885Z,61.96
2016-03-23T08:41:37.810Z,62.43
2016-03-23T08:42:37.796Z,62.05
2016-03-23T08:43:37.814Z,62.24
2016-03-23T08:44:37.740Z,61.96
2016-03-23T08:45:37.710Z,61.67
2016-03-23T08:46:37.698Z,61.76
2016-03-23T08:47:38.184Z,61.67
2016-03-23T08:48:37.750Z,61.57
2016-03-23T08:49:37.643Z,61.19
2016-03-23T08:50:37.723Z,61.19
2016-03-23T08:51:37.602Z,61.38
2016-03-23T08:52:37.526Z,60.91
2016-03-23T08:53:37.528Z,61
2016-03-23T08:54:37.734Z,61
2016-03-23T08:55:37.534Z,61.57
2016-03-23T08:56:37.490Z,61.19
2016-03-23T08:57:37.555Z,61.1
2016-03-23T08:58:37.417Z,61.19
2016-03-23T08:59:38.342Z,61
2016-03-23T09:00:37.344Z,61.22
2016-03-23T09:01:37.333Z,60.84
2016-03-23T09:02:37.272Z,60.36
2016-03-23T09:03:37.666Z,60.08
2016-03-23T09:04:37.793Z,60.17
2016-03-23T09:05:37.749Z,60.46
2016-03-23T09:06:37.377Z,60.27
2016-03-23T09:07:37.191Z,60.65
2016-03-23T09:08:37.616Z,60.55
2016-03-23T09:09:37.149Z,60.65
2016-03-23T09:10:37.513Z,60.75
2016-03-23T09:11:37.077Z,60.65
2016-03-23T09:13:37.129Z,60.17
2016-03-23T09:14:37.195Z,60.08
2016-03-23T09:15:37.088Z,60.36
2016-03-23T09:16:37.013Z,60.75
2016-03-23T09:18:37.112Z,60.33
2016-03-23T09:19:36.911Z,60.46
2016-03-23T09:20:37.429Z,60.27
2016-03-23T09:21:37.057Z,60.27
2016-03-23T09:22:37.153Z,60.36
2016-03-23T09:23:37.407Z,59.31
2016-03-23T09:24:36.753Z,59.6
2016-03-23T09:25:36.958Z,59.41
2016-03-23T09:26:36.711Z,58.84
2016-03-23T09:27:36.761Z,59.25
2016-03-23T09:28:36.826Z,59.53
2016-03-23T09:29:36.641Z,59.34
2016-03-23T09:30:37.019Z,59.34
2016-03-23T09:31:36.600Z,59.25
2016-03-23T09:32:36.618Z,59.34
2016-03-23T09:33:36.575Z,58.77
2016-03-23T09:34:36.686Z,58.87
2016-03-23T09:35:37.391Z,58.87
2016-03-23T09:36:36.722Z,58.87
2016-03-23T09:37:36.460Z,58.68
2016-03-23T09:38:36.432Z,59.25
2016-03-23T09:39:36.418Z,58.87
2016-03-23T09:40:36.390Z,58.01
2016-03-23T09:41:36.580Z,57.72
2016-03-23T09:42:36.395Z,58.2
2016-03-23T09:43:36.289Z,58.01
2016-03-23T09:44:36.276Z,58.2
2016-03-23T09:45:36.263Z,58.58
2016-03-23T09:46:36.282Z,59.44
2016-03-23T09:47:36.393Z,59.06
2016-03-23T09:48:36.396Z,59.53
2016-03-23T09:49:36.115Z,60.17
2016-03-23T09:50:36.257Z,60.27
2016-03-23T09:51:36.072Z,59.89
2016-03-23T09:52:36.059Z,60.65
2016-03-23T09:53:36.425Z,60.55
2016-03-23T09:54:37.271Z,60.17
2016-03-23T09:55:37.087Z,59.51
2016-03-23T09:56:35.946Z,59.41
2016-03-23T09:57:35.933Z,59.22
2016-03-23T09:58:35.935Z,59.31
2016-03-23T09:59:35.892Z,59.31
2016-03-23T10:00:35.894Z,59.41
2016-03-23T10:01:35.849Z,59.51
2016-03-23T10:02:35.914Z,59.22
2016-03-23T10:03:35.902Z,59.22
2016-03-23T10:04:36.233Z,58.94
2016-03-23T10:05:36.080Z,58.01
2016-03-23T10:06:35.707Z,57.82
2016-03-23T10:07:35.991Z,57.63
2016-03-23T10:08:35.727Z,57.82
2016-03-23T10:09:36.434Z,57.82
2016-03-23T10:10:35.671Z,57.82
2016-03-23T10:11:35.939Z,57.72
2016-03-23T10:12:36.598Z,57.82
2016-03-23T10:13:35.944Z,58.48
2016-03-23T10:14:35.760Z,58.2
2016-03-23T10:15:36.574Z,57.98
2016-03-23T10:16:35.532Z,58.65
2016-03-23T10:17:35.784Z,58.55
2016-03-23T10:18:35.536Z,58.94
2016-03-23T10:19:35.477Z,59.22
2016-03-23T10:20:35.417Z,58.84
2016-03-23T10:21:35.388Z,59.03
2016-03-23T10:22:35.343Z,59.22
2016-03-23T10:23:35.315Z,59
2016-03-23T10:24:35.348Z,59
2016-03-23T10:25:35.259Z,59
2016-03-23T10:26:35.245Z,59
2016-03-23T10:27:35.903Z,58.62
2016-03-23T10:28:35.219Z,58.91
2016-03-23T10:29:35.175Z,58.91
2016-03-23T10:30:35.678Z,58.62
2016-03-23T10:31:36.164Z,58.91
2016-03-23T10:32:35.527Z,59.09
2016-03-23T10:33:35.123Z,59.09
2016-03-23T10:34:35.047Z,58.52
2016-03-23T10:35:35.051Z,58.52
2016-03-23T10:36:35.006Z,59.09
2016-03-23T10:37:34.962Z,58.52
2016-03-23T10:38:34.996Z,59.09
2016-03-23T10:39:34.968Z,58.52
2016-03-23T10:40:34.939Z,58.43
2016-03-23T10:41:35.316Z,58.43
2016-03-23T10:42:34.929Z,58.33
2016-03-23T10:43:34.869Z,58.52
2016-03-23T10:44:34.824Z,57.86
2016-03-23T10:45:35.047Z,57.98
2016-03-23T10:46:35.424Z,57.86
2016-03-23T10:47:34.802Z,58.26
2016-03-23T10:48:35.054Z,57.67
2016-03-23T10:49:34.885Z,57.67
2016-03-23T10:50:34.856Z,57.03
2016-03-23T10:51:34.875Z,57.31
2016-03-23T10:52:34.862Z,56.84
2016-03-23T10:53:34.645Z,57.03
2016-03-23T10:54:34.601Z,57.12
2016-03-23T10:55:34.557Z,56.84
2016-03-23T10:56:34.779Z,57.5
2016-03-23T10:57:34.500Z,57.41
2016-03-23T10:58:34.472Z,57.22
2016-03-23T10:59:34.600Z,56.93
2016-03-23T11:00:34.528Z,56.84
2016-03-23T11:01:34.375Z,56.74
2016-03-23T11:02:34.378Z,56.55
2016-03-23T11:03:34.741Z,56.26
2016-03-23T11:04:34.336Z,55.88
2016-03-23T11:05:34.277Z,55.88
2016-03-23T11:06:34.451Z,55.69
2016-03-23T11:07:34.501Z,56.26
2016-03-23T11:08:34.254Z,55.53
2016-03-23T11:09:34.975Z,55.62
2016-03-23T11:10:34.821Z,54.96
2016-03-23T11:11:34.855Z,55.24
2016-03-23T11:12:34.124Z,54.86
2016-03-23T11:13:34.267Z,54.77
2016-03-23T11:14:38.053Z,54.77
2016-03-23T11:15:34.037Z,54.77
2016-03-23T11:16:34.572Z,55.05
2016-03-23T11:17:34.121Z,54.67
2016-03-23T11:18:34.514Z,54.96
2016-03-23T11:19:34.565Z,54.86
2016-03-23T11:20:34.051Z,54.96
2016-03-23T11:21:33.914Z,54.77
2016-03-23T11:22:48.794Z,54.86
2016-03-23T11:24:43.830Z,54.77
2016-03-23T11:25:34.642Z,54.67
2016-03-23T11:26:34.146Z,54.77
2016-03-23T11:27:33.773Z,55.05
2016-03-23T11:28:33.854Z,54.96
2016-03-23T11:29:33.811Z,54.67
2016-03-23T11:30:33.672Z,55.15
2016-03-23T11:31:57.522Z,55.34
2016-03-23T11:32:54.572Z,55.62
2016-03-23T11:33:40.761Z,55.5
2016-03-23T11:34:40.716Z,55.31
2016-03-23T11:35:40.705Z,55.15
2016-03-23T11:36:41.160Z,55.05
2016-03-23T11:37:48.881Z,55.05
2016-03-23T11:38:40.915Z,54.57
2016-03-23T11:39:54.683Z,54.48
2016-03-23T11:41:41.736Z,53.72
2016-03-23T11:42:41.098Z,53.43
2016-03-23T11:43:41.068Z,53.24
2016-03-23T11:44:41.228Z,53.17
2016-03-23T11:45:40.652Z,52.59
2016-03-23T11:46:41.124Z,52.12
2016-03-23T11:47:40.454Z,52.12
2016-03-23T11:48:40.582Z,52.22
2016-03-23T11:49:40.820Z,52.03
2016-03-23T11:50:40.447Z,52.05
2016-03-23T11:51:40.326Z,52.05
2016-03-23T11:52:40.031Z,52.05
2016-03-23T11:53:40.346Z,51.76
2016-03-23T11:54:40.255Z,51.57
2016-03-23T11:55:40.508Z,51.09
2016-03-23T11:56:40.261Z,50.84
2016-03-23T11:57:40.169Z,50.64
2016-03-23T11:58:40.297Z,50.64
2016-03-23T11:59:40.206Z,50.64
2016-03-23T12:00:40.130Z,50.64
2016-03-23T12:01:40.259Z,49.69
2016-03-23T12:02:40.527Z,49.71
2016-03-23T12:03:40.044Z,49.33
2016-03-23T12:04:40.000Z,49.14
2016-03-23T12:05:40.035Z,49.14
2016-03-23T12:06:40.147Z,49.62
2016-03-23T12:07:40.290Z,49.62
2016-03-23T12:08:39.902Z,50.35
2016-03-23T12:10:40.141Z,50.93
2016-03-23T12:11:40.660Z,51.21
2016-03-23T12:12:39.866Z,50.62
2016-03-23T12:13:39.806Z,50.74
2016-03-23T12:14:40.902Z,50.74
2016-03-23T12:15:39.812Z,50.62
2016-03-23T12:16:40.158Z,51.29
2016-03-23T12:17:40.098Z,51.67
2016-03-23T12:18:40.445Z,51.86
2016-03-23T12:19:40.228Z,51.67
2016-03-23T12:20:39.763Z,50.43
2016-03-23T12:21:40.249Z,50.81
2016-03-23T12:22:40.409Z,50.62
2016-03-23T12:23:39.676Z,50.71
2016-03-23T12:24:39.773Z,50.52
2016-03-23T12:25:39.714Z,50.9
2016-03-23T12:26:39.622Z,50.43
2016-03-23T12:27:39.719Z,50.9
2016-03-23T12:28:40.253Z,50.81
2016-03-23T12:29:39.755Z,51
2016-03-23T12:30:40.305Z,51.29
2016-03-23T12:31:39.370Z,51.57
2016-03-23T12:32:39.591Z,51.48
2016-03-23T12:33:39.328Z,51.38
2016-03-23T12:34:39.613Z,51.67
2016-03-23T12:35:39.303Z,51.38
2016-03-23T12:36:39.649Z,51.76
2016-03-23T12:37:39.261Z,51.57
2016-03-23T12:38:39.264Z,51.74
2016-03-23T12:40:39.175Z,52.05
2016-03-23T12:41:39.131Z,51.83
2016-03-23T12:42:39.118Z,51.67
2016-03-23T12:43:39.090Z,50.9
2016-03-23T12:44:39.154Z,51
2016-03-23T12:45:39.438Z,51
2016-03-23T12:46:39.004Z,51.67
2016-03-23T12:47:52.943Z,52.31
2016-03-23T12:48:40.150Z,52.03
2016-03-23T12:49:39.199Z,51.93
2016-03-23T12:50:39.201Z,51.93
2016-03-23T12:51:38.954Z,51.93
2016-03-23T12:52:39.083Z,52.03
2016-03-23T12:53:38.976Z,51.83
2016-03-23T12:54:38.882Z,52.12
2016-03-23T12:55:38.823Z,52.12
2016-03-23T12:56:38.872Z,52.22
2016-03-23T12:57:38.890Z,52.4
2016-03-23T12:58:38.799Z,52.12
2016-03-23T12:59:39.114Z,52.22
2016-03-23T13:00:38.695Z,52.5
2016-03-23T13:01:38.714Z,52.28
2016-03-23T13:02:38.700Z,52.28
2016-03-23T13:03:38.922Z,52.28
2016-03-23T13:04:38.644Z,52.28
2016-03-23T13:05:38.630Z,51.83